createdAt,value
2022-10-22T00:02:21.663Z,1.00
2022-10-22T00:04:48.685Z,1.00
2022-10-22T00:07:15.495Z,1.00
2022-10-22T00:09:41.951Z,0.90
2022-10-22T00:12:08.495Z,1.02
2022-10-22T00:14:34.847Z,1.00
2022-10-22T00:17:01.445Z,1.10
2022-10-22T00:19:28.378Z,1.00
2022-10-22T00:21:54.803Z,1.00
2022-10-22T00:24:21.266Z,0.80
2022-10-22T00:26:47.632Z,0.93
2022-10-22T00:29:14.029Z,0.98
2022-10-22T00:31:40.356Z,0.88
2022-10-22T00:34:06.748Z,1.00
2022-10-22T00:36:33.100Z,0.75
2022-10-22T00:38:59.469Z,1.00
2022-10-22T00:41:25.820Z,0.90
2022-10-22T00:43:56.074Z,0.82
2022-10-22T00:46:22.442Z,1.00
2022-10-22T00:48:49.357Z,0.90
2022-10-22T00:51:15.752Z,0.95
2022-10-22T00:53:45.068Z,0.95
2022-10-22T00:56:11.728Z,0.90
2022-10-22T00:58:41.498Z,0.75
2022-10-22T01:01:09.197Z,0.85
2022-10-22T01:03:35.643Z,0.80
2022-10-22T01:06:04.120Z,0.90
2022-10-22T01:08:44.855Z,0.80
2022-10-22T01:11:20.471Z,0.90
2022-10-22T01:13:49.571Z,0.93
2022-10-22T01:16:22.424Z,0.77
2022-10-22T01:18:57.900Z,0.88
2022-10-22T01:21:34.026Z,0.70
2022-10-22T01:24:19.465Z,0.95
2022-10-22T01:26:48.667Z,0.90
2022-10-22T01:29:34.842Z,1.00
2022-10-22T01:34:28.837Z,0.77
2022-10-22T01:36:55.990Z,1.10
2022-10-22T01:39:23.352Z,0.98
2022-10-22T01:41:49.691Z,1.00
2022-10-22T01:44:42.123Z,0.93
2022-10-22T01:47:08.657Z,1.00
2022-10-22T01:49:43.393Z,1.05
2022-10-22T01:52:12.839Z,0.88
2022-10-22T01:54:50.836Z,0.90
2022-10-22T01:57:39.379Z,0.80
2022-10-22T02:00:13.348Z,1.00
2022-10-22T02:02:42.936Z,1.05
2022-10-22T02:05:15.615Z,1.00
2022-10-22T02:07:44.849Z,0.85
2022-10-22T02:10:11.931Z,1.00
2022-10-22T02:12:39.304Z,0.85
2022-10-22T02:15:06.226Z,1.00
2022-10-22T02:17:34.368Z,1.02
2022-10-22T02:20:02.254Z,0.90
2022-10-22T02:22:29.518Z,0.80
2022-10-22T02:24:56.155Z,1.23
2022-10-22T02:27:33.277Z,1.27
2022-10-22T02:30:08.406Z,1.00
2022-10-22T02:32:39.770Z,0.80
2022-10-22T02:35:07.254Z,1.08
2022-10-22T02:37:34.352Z,1.10
2022-10-22T02:40:00.753Z,0.90
2022-10-22T02:42:28.303Z,0.95
2022-10-22T02:44:54.850Z,0.68
2022-10-22T02:47:21.241Z,0.90
2022-10-22T02:49:47.633Z,0.80
2022-10-22T02:52:14.189Z,0.90
2022-10-22T02:54:40.633Z,0.77
2022-10-22T02:57:07.140Z,0.82
2022-10-22T02:59:34.063Z,1.17
2022-10-22T03:02:00.449Z,0.98
2022-10-22T03:04:26.863Z,1.30
2022-10-22T03:06:53.205Z,0.95
2022-10-22T03:09:21.390Z,0.77
2022-10-22T03:11:50.451Z,1.08
2022-10-22T03:14:16.771Z,0.80
2022-10-22T03:16:43.139Z,1.05
2022-10-22T03:19:09.568Z,0.90
2022-10-22T03:21:38.943Z,0.82
2022-10-22T03:24:12.178Z,0.95
2022-10-22T03:26:39.537Z,0.98
2022-10-22T03:29:06.006Z,0.82
2022-10-22T03:31:32.378Z,1.00
2022-10-22T03:33:58.775Z,0.90
2022-10-22T03:36:25.594Z,1.00
2022-10-22T03:38:51.973Z,1.05
2022-10-22T03:41:18.448Z,1.10
2022-10-22T03:43:49.770Z,1.00
2022-10-22T03:46:16.129Z,0.80
2022-10-22T03:48:43.130Z,1.00
2022-10-22T03:51:10.388Z,0.73
2022-10-22T03:53:36.734Z,0.70
2022-10-22T03:56:03.243Z,0.90
2022-10-22T03:58:29.673Z,0.75
2022-10-22T04:00:56.106Z,0.90
2022-10-22T04:03:22.442Z,1.02
2022-10-22T04:05:48.759Z,0.90
2022-10-22T04:08:15.652Z,0.95
2022-10-22T04:10:41.993Z,0.90
2022-10-22T04:13:08.376Z,0.80
2022-10-22T04:15:34.822Z,0.90
2022-10-22T04:18:01.226Z,1.00
2022-10-22T04:20:27.597Z,0.85
2022-10-22T04:22:53.959Z,1.10
2022-10-22T04:25:20.299Z,1.05
2022-10-22T04:27:46.714Z,0.88
2022-10-22T04:30:13.448Z,0.90
2022-10-22T04:32:39.781Z,0.88
2022-10-22T04:35:06.858Z,1.10
2022-10-22T04:37:34.086Z,0.90
2022-10-22T04:40:00.410Z,0.90
2022-10-22T04:42:26.826Z,0.85
2022-10-22T04:44:53.213Z,0.77
2022-10-22T04:47:19.587Z,1.20
2022-10-22T04:49:45.917Z,1.00
2022-10-22T04:52:12.641Z,1.00
2022-10-22T04:54:38.977Z,0.90
2022-10-22T04:57:05.357Z,0.95
2022-10-22T04:59:31.772Z,1.02
2022-10-22T05:01:58.099Z,1.00
2022-10-22T05:04:24.417Z,1.20
2022-10-22T05:06:50.859Z,0.93
2022-10-22T05:09:19.860Z,1.17
2022-10-22T05:11:48.748Z,0.98
2022-10-22T05:14:25.045Z,1.00
2022-10-22T05:16:51.806Z,0.98
2022-10-22T05:19:19.714Z,1.02
2022-10-22T05:21:46.160Z,1.10
2022-10-22T05:24:12.962Z,0.80
2022-10-22T05:26:39.327Z,0.98
2022-10-22T05:29:05.681Z,0.90
2022-10-22T05:31:32.063Z,1.00
2022-10-22T05:33:58.502Z,1.25
2022-10-22T05:36:25.071Z,1.23
2022-10-22T05:38:51.643Z,1.00
2022-10-22T05:41:20.401Z,1.00
2022-10-22T05:43:47.200Z,1.02
2022-10-22T05:46:19.847Z,1.17
2022-10-22T05:48:49.095Z,1.40
2022-10-22T05:51:15.420Z,1.10
2022-10-22T05:53:42.330Z,1.15
2022-10-22T05:56:11.754Z,1.23
2022-10-22T05:58:38.422Z,1.13
2022-10-22T06:01:25.594Z,1.10
2022-10-22T06:04:01.851Z,1.20
2022-10-22T06:06:28.198Z,1.30
2022-10-22T06:08:56.025Z,1.10
2022-10-22T06:11:23.261Z,0.90
2022-10-22T06:13:49.777Z,1.10
2022-10-22T06:16:16.174Z,1.20
2022-10-22T06:18:42.491Z,1.02
2022-10-22T06:21:10.332Z,1.05
2022-10-22T06:23:37.450Z,1.30
2022-10-22T06:26:04.548Z,1.23
2022-10-22T06:28:31.148Z,1.20
2022-10-22T06:30:58.396Z,1.08
2022-10-22T06:33:25.200Z,1.20
2022-10-22T06:35:51.605Z,0.90
2022-10-22T06:38:17.963Z,1.08
2022-10-22T06:40:45.004Z,1.23
2022-10-22T06:43:11.674Z,1.10
2022-10-22T06:45:38.374Z,1.30
2022-10-22T06:48:05.004Z,1.20
2022-10-22T06:50:31.604Z,1.00
2022-10-22T06:52:58.407Z,1.10
2022-10-22T06:55:24.831Z,1.50
2022-10-22T06:57:51.238Z,1.30
2022-10-22T07:00:17.683Z,1.13
2022-10-22T07:02:44.220Z,0.80
2022-10-22T07:05:10.639Z,0.80
2022-10-22T07:07:36.985Z,1.17
2022-10-22T07:10:03.547Z,0.90
2022-10-22T07:12:29.881Z,1.30
2022-10-22T07:14:56.205Z,0.98
2022-10-22T07:17:22.578Z,1.00
2022-10-22T07:19:51.224Z,1.10
2022-10-22T07:22:18.405Z,0.88
2022-10-22T07:24:44.778Z,1.13
2022-10-22T07:27:11.855Z,0.95
2022-10-22T07:29:38.294Z,1.00
2022-10-22T07:32:04.725Z,0.90
2022-10-22T07:34:31.144Z,0.98
2022-10-22T07:36:57.495Z,1.27
2022-10-22T07:39:25.789Z,1.05
2022-10-22T07:41:52.399Z,1.23
2022-10-22T07:44:18.787Z,1.00
2022-10-22T07:46:48.125Z,0.80
2022-10-22T07:49:15.453Z,1.08
2022-10-22T07:51:41.845Z,0.80
2022-10-22T07:54:08.302Z,1.30
2022-10-22T07:56:34.634Z,1.00
2022-10-22T08:01:28.326Z,1.08
2022-10-22T08:03:54.783Z,1.30
2022-10-22T08:06:21.158Z,1.52
2022-10-22T08:08:47.670Z,1.52
2022-10-22T08:11:14.460Z,1.23
2022-10-22T08:13:45.106Z,1.50
2022-10-22T08:16:12.127Z,1.15
2022-10-22T08:18:39.456Z,1.42
2022-10-22T08:21:05.924Z,1.10
2022-10-22T08:23:32.739Z,1.35
2022-10-22T08:25:59.625Z,1.65
2022-10-22T08:28:26.309Z,1.17
2022-10-22T08:30:52.647Z,1.40
2022-10-22T08:33:19.089Z,1.08
2022-10-22T08:35:49.621Z,1.55
2022-10-22T08:38:16.027Z,1.00
2022-10-22T08:40:42.537Z,1.25
2022-10-22T08:43:17.881Z,1.20
2022-10-22T08:45:50.146Z,1.02
2022-10-22T08:48:22.489Z,1.40
2022-10-22T08:50:49.822Z,1.40
2022-10-22T08:53:17.902Z,1.40
2022-10-22T08:55:44.636Z,1.20
2022-10-22T08:58:17.612Z,1.23
2022-10-22T09:00:46.685Z,1.38
2022-10-22T09:03:31.865Z,1.08
2022-10-22T09:06:13.280Z,1.13
2022-10-22T09:08:40.434Z,1.10
2022-10-22T09:11:06.820Z,1.00
2022-10-22T09:13:33.268Z,1.10
2022-10-22T09:16:01.027Z,1.20
2022-10-22T09:18:33.068Z,1.10
2022-10-22T09:21:11.707Z,1.10
2022-10-22T09:23:44.869Z,1.00
2022-10-22T09:26:15.481Z,1.20
2022-10-22T09:28:42.742Z,1.02
2022-10-22T09:31:13.024Z,1.20
2022-10-22T09:33:40.018Z,1.20
2022-10-22T09:36:07.840Z,1.17
2022-10-22T09:38:38.852Z,1.10
2022-10-22T09:41:05.528Z,1.15
2022-10-22T09:43:33.294Z,1.02
2022-10-22T09:46:01.081Z,0.95
2022-10-22T09:48:34.392Z,1.20
2022-10-22T09:51:06.708Z,1.20
2022-10-22T09:53:37.291Z,1.20
2022-10-22T09:56:07.452Z,1.02
2022-10-22T09:58:49.336Z,1.13
2022-10-22T10:01:18.385Z,0.85
2022-10-22T10:03:44.734Z,0.73
2022-10-22T10:06:12.498Z,0.93
2022-10-22T10:08:38.894Z,0.73
2022-10-22T10:11:12.908Z,1.02
2022-10-22T10:13:57.962Z,1.02
2022-10-22T10:16:42.861Z,0.70
2022-10-22T10:19:37.686Z,1.10
2022-10-22T10:22:14.247Z,0.80
2022-10-22T10:24:59.485Z,0.60
2022-10-22T10:27:28.401Z,0.65
2022-10-22T10:29:59.169Z,0.80
2022-10-22T10:32:34.866Z,0.80
2022-10-22T10:37:43.784Z,1.08
2022-10-22T10:40:28.885Z,0.70
2022-10-22T10:42:59.101Z,0.90
2022-10-22T10:45:25.429Z,0.95
2022-10-22T10:47:51.737Z,0.70
2022-10-22T10:50:21.654Z,0.68
2022-10-22T10:52:50.771Z,0.60
2022-10-22T10:55:30.341Z,0.90
2022-10-22T10:58:16.750Z,0.95
2022-10-22T11:01:03.354Z,0.77
2022-10-22T11:03:29.726Z,0.93
2022-10-22T11:06:00.357Z,0.70
2022-10-22T11:08:36.492Z,0.85
2022-10-22T11:11:12.060Z,0.73
2022-10-22T11:13:50.788Z,0.70
2022-10-22T11:16:23.403Z,0.60
2022-10-22T11:19:07.201Z,0.77
2022-10-22T11:21:33.508Z,0.70
2022-10-22T11:24:29.203Z,0.60
2022-10-22T11:27:04.634Z,0.68
2022-10-22T11:29:34.087Z,0.80
2022-10-22T11:32:01.955Z,0.90
2022-10-22T11:34:34.717Z,0.70
2022-10-22T11:37:01.680Z,0.60
2022-10-22T11:39:35.467Z,0.70
2022-10-22T11:42:03.536Z,0.50
2022-10-22T11:44:30.315Z,0.57
2022-10-22T11:46:58.654Z,0.70
2022-10-22T11:49:41.114Z,0.80
2022-10-22T11:52:33.987Z,0.60
2022-10-22T11:55:01.834Z,0.80
2022-10-22T11:57:34.193Z,0.70
2022-10-22T12:00:00.708Z,0.70
2022-10-22T12:02:45.950Z,0.65
2022-10-22T12:05:24.369Z,0.90
2022-10-22T12:07:58.398Z,0.90
2022-10-22T12:10:26.596Z,0.43
2022-10-22T12:12:57.424Z,0.52
2022-10-22T12:15:25.951Z,0.80
2022-10-22T12:17:56.892Z,0.77
2022-10-22T12:20:25.419Z,0.80
2022-10-22T12:22:52.540Z,0.77
2022-10-22T12:25:22.518Z,0.70
2022-10-22T12:27:54.764Z,0.85
2022-10-22T12:30:29.898Z,0.57
2022-10-22T12:32:58.240Z,0.88
2022-10-22T12:35:26.732Z,0.63
2022-10-22T12:37:55.479Z,0.70
2022-10-22T12:40:23.793Z,0.73
2022-10-22T12:43:00.708Z,0.88
2022-10-22T12:45:32.903Z,0.73
2022-10-22T12:48:00.483Z,0.63
2022-10-22T12:50:47.071Z,0.80
2022-10-22T12:53:32.081Z,0.82
2022-10-22T12:56:01.321Z,0.93
2022-10-22T12:58:29.189Z,0.75
2022-10-22T13:01:01.902Z,0.70
2022-10-22T13:03:28.391Z,0.80
2022-10-22T13:05:54.780Z,0.90
2022-10-22T13:08:22.410Z,0.85
2022-10-22T13:10:52.869Z,0.90
2022-10-22T13:13:42.687Z,0.90
2022-10-22T13:16:25.860Z,0.80
2022-10-22T13:18:53.218Z,0.80
2022-10-22T13:21:28.470Z,0.75
2022-10-22T13:24:02.932Z,0.88
2022-10-22T13:26:34.083Z,0.80
2022-10-22T13:29:01.266Z,0.82
2022-10-22T13:31:32.207Z,0.85
2022-10-22T13:34:02.401Z,0.90
2022-10-22T13:36:31.396Z,0.75
2022-10-22T13:38:57.952Z,0.90
2022-10-22T13:41:25.719Z,0.90
2022-10-22T13:43:52.627Z,1.00
2022-10-22T13:46:19.281Z,1.05
2022-10-22T13:48:46.491Z,0.65
2022-10-22T13:51:14.072Z,1.00
2022-10-22T13:53:40.512Z,0.88
2022-10-22T13:56:06.876Z,0.93
2022-10-22T13:58:33.267Z,0.82
2022-10-22T14:01:00.627Z,0.95
2022-10-22T14:03:29.377Z,0.80
2022-10-22T14:05:55.859Z,0.73
2022-10-22T14:08:23.233Z,1.00
2022-10-22T14:10:49.616Z,0.93
2022-10-22T14:13:16.773Z,0.90
2022-10-22T14:15:44.581Z,0.90
2022-10-22T14:18:16.484Z,1.25
2022-10-22T14:20:43.120Z,0.95
2022-10-22T14:23:18.951Z,1.00
2022-10-22T14:25:45.381Z,1.10
2022-10-22T14:28:12.004Z,0.75
2022-10-22T14:30:38.774Z,0.60
2022-10-22T14:33:18.897Z,1.00
2022-10-22T14:35:45.375Z,0.90
2022-10-22T14:38:11.909Z,0.65
2022-10-22T14:40:39.295Z,0.90
2022-10-22T14:43:05.705Z,0.73
2022-10-22T14:45:32.109Z,0.60
2022-10-22T14:47:58.473Z,0.90
2022-10-22T14:50:24.871Z,0.80
2022-10-22T14:52:51.424Z,0.77
2022-10-22T14:55:18.494Z,0.70
2022-10-22T14:57:45.227Z,0.70
2022-10-22T15:00:13.601Z,0.60
2022-10-22T15:02:40.225Z,0.70
2022-10-22T15:05:07.161Z,1.10
2022-10-22T15:07:33.564Z,0.73
2022-10-22T15:09:59.993Z,0.77
2022-10-22T15:12:26.690Z,0.73
2022-10-22T15:14:53.086Z,0.73
2022-10-22T15:17:19.466Z,0.73
2022-10-22T15:19:45.821Z,0.70
2022-10-22T15:22:12.349Z,0.70
2022-10-22T15:24:38.908Z,0.70
2022-10-22T15:27:05.313Z,0.90
2022-10-22T15:29:32.601Z,0.77
2022-10-22T15:31:59.388Z,0.82
2022-10-22T15:34:29.986Z,0.57
2022-10-22T15:36:57.452Z,0.63
2022-10-22T15:39:24.006Z,0.88
2022-10-22T15:41:50.768Z,0.60
2022-10-22T15:44:20.478Z,0.68
2022-10-22T15:46:47.028Z,0.70
2022-10-22T15:49:13.860Z,1.13
2022-10-22T15:51:41.119Z,0.80
2022-10-22T15:54:10.203Z,0.70
2022-10-22T15:56:36.873Z,0.80
2022-10-22T15:59:06.778Z,0.93
2022-10-22T16:01:34.405Z,0.47
2022-10-22T16:04:02.662Z,0.52
2022-10-22T16:06:30.181Z,0.70
2022-10-22T16:08:57.795Z,0.95
2022-10-22T16:11:24.333Z,0.70
2022-10-22T16:13:59.957Z,0.50
2022-10-22T16:16:28.169Z,0.82
2022-10-22T16:18:54.596Z,0.82
2022-10-22T16:21:21.377Z,0.90
2022-10-22T16:23:47.849Z,0.88
2022-10-22T16:26:15.235Z,0.68
2022-10-22T16:28:42.281Z,0.90
2022-10-22T16:31:09.640Z,0.60
2022-10-22T16:33:41.489Z,0.90
2022-10-22T16:36:11.477Z,0.93
2022-10-22T16:38:38.031Z,0.88
2022-10-22T16:41:12.089Z,0.80
2022-10-22T16:43:38.596Z,0.70
2022-10-22T16:46:06.067Z,0.77
2022-10-22T16:48:33.384Z,1.10
2022-10-22T16:51:04.402Z,1.13
2022-10-22T16:53:30.803Z,0.85
2022-10-22T16:55:57.202Z,1.10
2022-10-22T16:58:23.530Z,1.00
2022-10-22T17:00:50.277Z,1.00
2022-10-22T17:03:16.637Z,0.90
2022-10-22T17:05:43.039Z,0.93
2022-10-22T17:08:09.429Z,1.08
2022-10-22T17:10:37.134Z,0.85
2022-10-22T17:13:04.263Z,0.88
2022-10-22T17:15:30.670Z,0.73
2022-10-22T17:17:59.515Z,0.82
2022-10-22T17:20:25.914Z,0.80
2022-10-22T17:22:52.302Z,0.95
2022-10-22T17:25:23.614Z,1.40
2022-10-22T17:27:50.208Z,0.70
2022-10-22T17:30:19.213Z,0.90
2022-10-22T17:32:47.158Z,0.95
2022-10-22T17:35:14.633Z,0.93
2022-10-22T17:37:41.203Z,1.00
2022-10-22T17:40:08.012Z,1.10
2022-10-22T17:42:34.411Z,1.00
2022-10-22T17:45:00.796Z,1.02
2022-10-22T17:47:27.242Z,0.75
2022-10-22T17:49:54.220Z,0.85
2022-10-22T17:52:20.582Z,1.02
2022-10-22T17:54:48.251Z,1.02
2022-10-22T17:57:14.673Z,1.10
2022-10-22T17:59:41.044Z,1.30
2022-10-22T18:02:09.631Z,0.98
2022-10-22T18:04:36.033Z,0.88
2022-10-22T18:07:02.395Z,0.90
2022-10-22T18:09:28.802Z,0.98
2022-10-22T18:11:55.694Z,1.30
2022-10-22T18:14:22.480Z,1.00
2022-10-22T18:16:49.285Z,0.90
2022-10-22T18:19:17.105Z,1.17
2022-10-22T18:21:43.497Z,1.05
2022-10-22T18:24:10.318Z,1.10
2022-10-22T18:26:36.943Z,1.38
2022-10-22T18:29:03.392Z,1.08
2022-10-22T18:31:30.380Z,0.93
2022-10-22T18:33:57.264Z,0.90
2022-10-22T18:36:24.875Z,0.90
2022-10-22T18:38:51.879Z,1.05
2022-10-22T18:41:19.013Z,1.02
2022-10-22T18:43:49.746Z,0.93
2022-10-22T18:46:16.193Z,0.90
2022-10-22T18:48:42.511Z,0.90
2022-10-22T18:51:09.656Z,0.95
2022-10-22T18:53:36.823Z,1.00
2022-10-22T18:56:10.031Z,0.85
2022-10-22T18:58:40.106Z,0.90
2022-10-22T19:01:07.695Z,1.30
2022-10-22T19:03:34.159Z,0.80
2022-10-22T19:06:00.567Z,0.90
2022-10-22T19:08:27.329Z,0.80
2022-10-22T19:10:54.084Z,1.10
2022-10-22T19:13:23.136Z,1.13
2022-10-22T19:15:49.625Z,1.10
2022-10-22T19:18:16.152Z,1.00
2022-10-22T19:20:44.360Z,0.93
2022-10-22T19:23:10.695Z,0.80
2022-10-22T19:25:37.510Z,1.10
2022-10-22T19:28:03.904Z,1.02
2022-10-22T19:30:30.336Z,1.80
2022-10-22T19:32:56.698Z,0.80
2022-10-22T19:35:23.142Z,1.05
2022-10-22T19:37:49.538Z,0.93
2022-10-22T19:40:15.984Z,0.70
2022-10-22T19:42:44.522Z,0.90
2022-10-22T19:45:11.180Z,0.70
2022-10-22T19:47:37.608Z,1.20
2022-10-22T19:50:04.160Z,1.05
2022-10-22T19:52:33.202Z,0.80
2022-10-22T19:54:59.576Z,0.85
2022-10-22T19:57:25.968Z,1.00
2022-10-22T19:59:52.319Z,1.10
2022-10-22T20:02:18.861Z,0.90
2022-10-22T20:04:49.211Z,0.90
2022-10-22T20:07:16.536Z,1.00
2022-10-22T20:09:42.866Z,1.00
2022-10-22T20:12:09.221Z,0.90
2022-10-22T20:14:35.789Z,1.20
2022-10-22T20:17:02.160Z,1.00
2022-10-22T20:19:29.791Z,0.93
2022-10-22T20:21:56.224Z,0.90
2022-10-22T20:24:22.878Z,1.00
2022-10-22T20:26:49.276Z,0.90
2022-10-22T20:29:16.806Z,1.00
2022-10-22T20:31:43.425Z,1.00
2022-10-22T20:34:09.841Z,1.00
2022-10-22T20:36:36.234Z,1.10
2022-10-22T20:39:05.730Z,1.00
2022-10-22T20:41:34.010Z,1.13
2022-10-22T20:44:00.563Z,0.80
2022-10-22T20:46:29.145Z,1.02
2022-10-22T20:48:58.266Z,0.75
2022-10-22T20:51:24.761Z,0.80
2022-10-22T20:53:51.143Z,0.75
2022-10-22T20:56:18.097Z,0.98
2022-10-22T20:58:48.357Z,0.80
2022-10-22T21:01:21.292Z,0.95
2022-10-22T21:03:49.286Z,1.05
2022-10-22T21:06:15.746Z,0.82
2022-10-22T21:08:42.276Z,0.82
2022-10-22T21:11:08.687Z,1.25
2022-10-22T21:13:35.124Z,1.25
2022-10-22T21:16:07.121Z,1.13
2022-10-22T21:18:33.597Z,1.00
2022-10-22T21:20:59.959Z,1.20
2022-10-22T21:23:26.337Z,1.45
2022-10-22T21:25:53.770Z,1.27
2022-10-22T21:28:20.282Z,1.27
2022-10-22T21:30:46.774Z,1.42
2022-10-22T21:33:13.194Z,1.20
2022-10-22T21:35:39.569Z,1.40
2022-10-22T21:38:07.818Z,1.73
2022-10-22T21:40:37.137Z,1.35
2022-10-22T21:43:03.556Z,1.73
2022-10-22T21:45:29.911Z,1.80
2022-10-22T21:47:56.729Z,1.70
2022-10-22T21:50:23.092Z,1.60
2022-10-22T21:52:49.466Z,1.70
2022-10-22T21:55:15.982Z,1.52
2022-10-22T21:57:42.579Z,1.65
2022-10-22T22:00:09.554Z,1.90
2022-10-22T22:02:35.928Z,1.60
2022-10-22T22:05:02.873Z,1.92
2022-10-22T22:07:29.264Z,1.50
2022-10-22T22:09:55.716Z,1.73
2022-10-22T22:12:22.095Z,1.80
2022-10-22T22:14:48.928Z,1.80
2022-10-22T22:17:16.508Z,1.92
2022-10-22T22:19:42.956Z,2.50
2022-10-22T22:22:09.362Z,1.80
2022-10-22T22:24:35.797Z,1.80
2022-10-22T22:27:02.171Z,1.55
2022-10-22T22:29:28.549Z,1.90
2022-10-22T22:31:55.025Z,1.90
2022-10-22T22:34:21.407Z,2.20
2022-10-22T22:36:49.456Z,1.90
2022-10-22T22:39:17.873Z,2.47
2022-10-22T22:41:44.678Z,2.00
2022-10-22T22:44:11.362Z,2.25
2022-10-22T22:46:37.807Z,1.83
2022-10-22T22:49:04.591Z,2.20
2022-10-22T22:51:31.254Z,2.17
2022-10-22T22:53:58.178Z,1.90
2022-10-22T22:56:25.434Z,2.28
2022-10-22T22:58:52.268Z,1.77
2022-10-22T23:01:23.260Z,2.22
2022-10-22T23:03:59.710Z,1.90
2022-10-22T23:06:27.219Z,2.38
2022-10-22T23:08:54.404Z,1.88
2022-10-22T23:11:21.404Z,1.90
2022-10-22T23:13:48.088Z,1.92
2022-10-22T23:16:24.453Z,1.90
2022-10-22T23:18:52.554Z,1.77
2022-10-22T23:21:20.129Z,1.92
2022-10-22T23:23:47.405Z,2.33
2022-10-22T23:26:14.682Z,2.25
2022-10-22T23:28:41.330Z,2.17
2022-10-22T23:31:07.872Z,2.30
2022-10-22T23:33:34.664Z,2.35
2022-10-22T23:36:01.957Z,2.13
2022-10-22T23:38:28.671Z,2.25
2022-10-22T23:40:56.544Z,2.10
2022-10-22T23:43:23.888Z,2.13
2022-10-22T23:45:50.339Z,2.30
2022-10-22T23:48:17.192Z,2.53
2022-10-22T23:50:43.656Z,2.30
2022-10-22T23:53:10.080Z,2.30
2022-10-22T23:55:37.168Z,1.77
2022-10-22T23:58:03.651Z,2.28
